sensor_id;sensor_type;location;lat;lon;timestamp;temperature;humidity
19330;DHT22;9799;48.214;16.388;2023-05-29T00:02:07;18.70;93.00
19330;DHT22;9799;48.214;16.388;2023-05-29T00:05:28;18.60;93.00
19330;DHT22;9799;48.214;16.388;2023-05-29T00:08:51;18.50;93.00
19330;DHT22;9799;48.214;16.388;2023-05-29T00:12:12;18.50;93.40
19330;DHT22;9799;48.214;16.388;2023-05-29T00:15:34;18.50;93.10
19330;DHT22;9799;48.214;16.388;2023-05-29T00:18:56;18.50;93.10
19330;DHT22;9799;48.214;16.388;2023-05-29T00:22:18;18.40;93.30
19330;DHT22;9799;48.214;16.388;2023-05-29T00:25:40;18.40;93.30
19330;DHT22;9799;48.214;16.388;2023-05-29T00:29:01;18.40;93.30
19330;DHT22;9799;48.214;16.388;2023-05-29T00:32:22;18.40;93.10
19330;DHT22;9799;48.214;16.388;2023-05-29T00:35:43;18.30;93.30
19330;DHT22;9799;48.214;16.388;2023-05-29T00:39:04;18.20;93.30
19330;DHT22;9799;48.214;16.388;2023-05-29T00:42:27;18.20;93.40
19330;DHT22;9799;48.214;16.388;2023-05-29T00:45:49;18.20;93.40
19330;DHT22;9799;48.214;16.388;2023-05-29T00:49:11;18.20;93.30
19330;DHT22;9799;48.214;16.388;2023-05-29T00:52:32;18.30;93.50
19330;DHT22;9799;48.214;16.388;2023-05-29T00:55:54;18.30;93.50
19330;DHT22;9799;48.214;16.388;2023-05-29T00:59:16;18.20;93.30
19330;DHT22;9799;48.214;16.388;2023-05-29T01:02:39;18.10;93.40
19330;DHT22;9799;48.214;16.388;2023-05-29T01:06:03;18.10;93.50
19330;DHT22;9799;48.214;16.388;2023-05-29T01:09:25;18.00;93.40
19330;DHT22;9799;48.214;16.388;2023-05-29T01:12:50;18.00;93.80
19330;DHT22;9799;48.214;16.388;2023-05-29T01:16:21;17.90;93.70
19330;DHT22;9799;48.214;16.388;2023-05-29T01:20:02;17.90;93.80
19330;DHT22;9799;48.214;16.388;2023-05-29T01:23:37;17.90;95.00
19330;DHT22;9799;48.214;16.388;2023-05-29T01:27:01;17.80;95.80
19330;DHT22;9799;48.214;16.388;2023-05-29T01:30:24;17.60;96.50
19330;DHT22;9799;48.214;16.388;2023-05-29T01:33:52;17.50;97.50
19330;DHT22;9799;48.214;16.388;2023-05-29T01:37:13;17.60;98.10
19330;DHT22;9799;48.214;16.388;2023-05-29T01:40:34;17.60;99.30
19330;DHT22;9799;48.214;16.388;2023-05-29T01:43:58;17.40;98.40
19330;DHT22;9799;48.214;16.388;2023-05-29T01:47:20;17.40;97.90
19330;DHT22;9799;48.214;16.388;2023-05-29T01:50:42;17.40;98.50
19330;DHT22;9799;48.214;16.388;2023-05-29T01:54:04;17.30;99.90
19330;DHT22;9799;48.214;16.388;2023-05-29T01:57:25;17.30;99.90
19330;DHT22;9799;48.214;16.388;2023-05-29T02:00:48;17.40;99.20
19330;DHT22;9799;48.214;16.388;2023-05-29T02:04:10;17.40;99.90
19330;DHT22;9799;48.214;16.388;2023-05-29T02:07:31;17.40;99.90
19330;DHT22;9799;48.214;16.388;2023-05-29T02:10:52;17.30;99.90
19330;DHT22;9799;48.214;16.388;2023-05-29T02:14:13;17.10;99.90
19330;DHT22;9799;48.214;16.388;2023-05-29T02:17:35;17.10;99.90
19330;DHT22;9799;48.214;16.388;2023-05-29T02:20:57;17.00;99.90
19330;DHT22;9799;48.214;16.388;2023-05-29T02:24:18;16.90;99.90
19330;DHT22;9799;48.214;16.388;2023-05-29T02:27:39;16.90;99.90
19330;DHT22;9799;48.214;16.388;2023-05-29T02:31:02;16.90;99.90
19330;DHT22;9799;48.214;16.388;2023-05-29T02:34:24;16.80;99.90
19330;DHT22;9799;48.214;16.388;2023-05-29T02:37:46;16.70;99.90
19330;DHT22;9799;48.214;16.388;2023-05-29T02:41:07;16.70;99.90
19330;DHT22;9799;48.214;16.388;2023-05-29T02:44:29;16.90;99.90
19330;DHT22;9799;48.214;16.388;2023-05-29T02:47:50;17.00;99.90
19330;DHT22;9799;48.214;16.388;2023-05-29T02:51:13;17.10;99.90
19330;DHT22;9799;48.214;16.388;2023-05-29T02:54:34;17.20;99.90
19330;DHT22;9799;48.214;16.388;2023-05-29T02:57:55;17.10;99.90
19330;DHT22;9799;48.214;16.388;2023-05-29T03:01:16;17.10;99.90
19330;DHT22;9799;48.214;16.388;2023-05-29T03:04:37;17.00;99.90
19330;DHT22;9799;48.214;16.388;2023-05-29T03:08:00;16.80;99.90
19330;DHT22;9799;48.214;16.388;2023-05-29T03:11:21;17.00;99.90
19330;DHT22;9799;48.214;16.388;2023-05-29T03:14:44;17.10;99.90
19330;DHT22;9799;48.214;16.388;2023-05-29T03:18:05;17.10;99.90
19330;DHT22;9799;48.214;16.388;2023-05-29T03:21:26;17.00;99.90
19330;DHT22;9799;48.214;16.388;2023-05-29T03:24:49;17.00;99.90
19330;DHT22;9799;48.214;16.388;2023-05-29T03:28:10;17.00;99.90
19330;DHT22;9799;48.214;16.388;2023-05-29T03:31:32;16.90;99.80
19330;DHT22;9799;48.214;16.388;2023-05-29T03:34:53;16.80;99.90
19330;DHT22;9799;48.214;16.388;2023-05-29T03:38:15;16.70;99.90
19330;DHT22;9799;48.214;16.388;2023-05-29T03:41:37;16.60;99.90
19330;DHT22;9799;48.214;16.388;2023-05-29T03:44:59;16.50;99.90
19330;DHT22;9799;48.214;16.388;2023-05-29T03:48:20;16.40;99.90
19330;DHT22;9799;48.214;16.388;2023-05-29T03:51:41;16.20;99.90
19330;DHT22;9799;48.214;16.388;2023-05-29T03:55:03;16.20;99.90
19330;DHT22;9799;48.214;16.388;2023-05-29T03:58:25;16.10;99.90
19330;DHT22;9799;48.214;16.388;2023-05-29T04:01:46;16.20;99.90
19330;DHT22;9799;48.214;16.388;2023-05-29T04:05:08;16.20;99.90
19330;DHT22;9799;48.214;16.388;2023-05-29T04:08:29;16.20;99.90
19330;DHT22;9799;48.214;16.388;2023-05-29T04:11:50;16.30;99.90
19330;DHT22;9799;48.214;16.388;2023-05-29T04:15:15;16.50;99.90
19330;DHT22;9799;48.214;16.388;2023-05-29T04:18:37;16.60;99.90
19330;DHT22;9799;48.214;16.388;2023-05-29T04:21:58;16.60;99.90
19330;DHT22;9799;48.214;16.388;2023-05-29T04:25:19;16.20;99.90
19330;DHT22;9799;48.214;16.388;2023-05-29T04:28:40;16.40;99.90
19330;DHT22;9799;48.214;16.388;2023-05-29T04:32:04;16.50;99.90
19330;DHT22;9799;48.214;16.388;2023-05-29T04:35:25;16.70;99.90
19330;DHT22;9799;48.214;16.388;2023-05-29T04:38:48;16.70;99.90
19330;DHT22;9799;48.214;16.388;2023-05-29T04:42:10;16.70;99.90
19330;DHT22;9799;48.214;16.388;2023-05-29T04:45:32;16.70;99.90
19330;DHT22;9799;48.214;16.388;2023-05-29T04:48:55;16.80;99.90
19330;DHT22;9799;48.214;16.388;2023-05-29T04:52:16;16.80;99.90
19330;DHT22;9799;48.214;16.388;2023-05-29T04:55:37;16.90;99.90
19330;DHT22;9799;48.214;16.388;2023-05-29T04:58:59;16.80;99.90
19330;DHT22;9799;48.214;16.388;2023-05-29T05:02:20;17.00;99.90
19330;DHT22;9799;48.214;16.388;2023-05-29T05:05:43;17.00;99.90
19330;DHT22;9799;48.214;16.388;2023-05-29T05:09:04;17.10;99.90
19330;DHT22;9799;48.214;16.388;2023-05-29T05:12:25;17.10;99.90
19330;DHT22;9799;48.214;16.388;2023-05-29T05:15:47;17.10;99.90
19330;DHT22;9799;48.214;16.388;2023-05-29T05:19:08;17.20;99.90
19330;DHT22;9799;48.214;16.388;2023-05-29T05:22:30;17.20;99.90
19330;DHT22;9799;48.214;16.388;2023-05-29T05:25:51;17.30;99.90
19330;DHT22;9799;48.214;16.388;2023-05-29T05:29:13;17.30;99.90
19330;DHT22;9799;48.214;16.388;2023-05-29T05:32:34;17.30;99.90
19330;DHT22;9799;48.214;16.388;2023-05-29T05:35:55;17.50;99.90
19330;DHT22;9799;48.214;16.388;2023-05-29T05:39:17;17.60;99.90
19330;DHT22;9799;48.214;16.388;2023-05-29T05:42:39;17.60;99.90
19330;DHT22;9799;48.214;16.388;2023-05-29T05:46:00;17.70;99.90
19330;DHT22;9799;48.214;16.388;2023-05-29T05:49:21;17.90;99.90
19330;DHT22;9799;48.214;16.388;2023-05-29T05:52:42;18.10;99.90
19330;DHT22;9799;48.214;16.388;2023-05-29T05:56:05;18.30;99.90
19330;DHT22;9799;48.214;16.388;2023-05-29T05:59:26;18.60;99.90
19330;DHT22;9799;48.214;16.388;2023-05-29T06:02:48;18.70;99.90
19330;DHT22;9799;48.214;16.388;2023-05-29T06:06:09;19.00;99.90
19330;DHT22;9799;48.214;16.388;2023-05-29T06:09:30;19.20;99.90
19330;DHT22;9799;48.214;16.388;2023-05-29T06:12:52;19.10;99.90
19330;DHT22;9799;48.214;16.388;2023-05-29T06:16:14;19.20;99.50
19330;DHT22;9799;48.214;16.388;2023-05-29T06:19:35;19.10;99.20
19330;DHT22;9799;48.214;16.388;2023-05-29T06:22:56;19.20;99.20
19330;DHT22;9799;48.214;16.388;2023-05-29T06:26:17;19.20;98.80
19330;DHT22;9799;48.214;16.388;2023-05-29T06:29:40;19.40;99.50
19330;DHT22;9799;48.214;16.388;2023-05-29T06:33:01;19.10;98.90
19330;DHT22;9799;48.214;16.388;2023-05-29T06:36:22;19.30;98.60
19330;DHT22;9799;48.214;16.388;2023-05-29T06:39:44;19.40;98.00
19330;DHT22;9799;48.214;16.388;2023-05-29T06:43:06;19.50;98.10
19330;DHT22;9799;48.214;16.388;2023-05-29T06:46:28;19.70;97.30
19330;DHT22;9799;48.214;16.388;2023-05-29T06:49:49;19.70;97.20
19330;DHT22;9799;48.214;16.388;2023-05-29T06:53:10;19.90;97.10
19330;DHT22;9799;48.214;16.388;2023-05-29T06:56:31;20.10;96.20
19330;DHT22;9799;48.214;16.388;2023-05-29T06:59:53;20.20;96.50
19330;DHT22;9799;48.214;16.388;2023-05-29T07:03:16;19.90;96.40
19330;DHT22;9799;48.214;16.388;2023-05-29T07:06:37;19.90;96.10
19330;DHT22;9799;48.214;16.388;2023-05-29T07:09:58;19.70;95.50
19330;DHT22;9799;48.214;16.388;2023-05-29T07:13:19;19.70;96.40
19330;DHT22;9799;48.214;16.388;2023-05-29T07:16:41;19.70;96.40
19330;DHT22;9799;48.214;16.388;2023-05-29T07:20:04;19.90;96.70
19330;DHT22;9799;48.214;16.388;2023-05-29T07:23:27;20.00;95.80
19330;DHT22;9799;48.214;16.388;2023-05-29T07:26:48;20.00;94.80
19330;DHT22;9799;48.214;16.388;2023-05-29T07:30:10;20.00;94.60
19330;DHT22;9799;48.214;16.388;2023-05-29T07:33:31;20.00;93.70
19330;DHT22;9799;48.214;16.388;2023-05-29T07:36:59;20.00;95.00
19330;DHT22;9799;48.214;16.388;2023-05-29T07:40:20;20.10;94.20
19330;DHT22;9799;48.214;16.388;2023-05-29T07:43:42;20.40;93.30
19330;DHT22;9799;48.214;16.388;2023-05-29T07:47:05;20.30;93.80
19330;DHT22;9799;48.214;16.388;2023-05-29T07:50:26;20.30;94.80
19330;DHT22;9799;48.214;16.388;2023-05-29T07:53:49;20.10;95.00
19330;DHT22;9799;48.214;16.388;2023-05-29T07:57:10;20.00;94.60
19330;DHT22;9799;48.214;16.388;2023-05-29T08:00:31;20.00;94.20
19330;DHT22;9799;48.214;16.388;2023-05-29T08:03:53;20.00;93.70
19330;DHT22;9799;48.214;16.388;2023-05-29T08:07:14;20.10;93.60
19330;DHT22;9799;48.214;16.388;2023-05-29T08:10:36;20.30;94.10
19330;DHT22;9799;48.214;16.388;2023-05-29T08:13:58;20.20;94.10
19330;DHT22;9799;48.214;16.388;2023-05-29T08:17:19;20.20;94.40
19330;DHT22;9799;48.214;16.388;2023-05-29T08:20:40;20.20;94.20
19330;DHT22;9799;48.214;16.388;2023-05-29T08:24:03;20.20;94.60
19330;DHT22;9799;48.214;16.388;2023-05-29T08:27:26;20.20;94.00
19330;DHT22;9799;48.214;16.388;2023-05-29T08:30:47;20.50;94.10
19330;DHT22;9799;48.214;16.388;2023-05-29T08:34:08;20.60;94.30
19330;DHT22;9799;48.214;16.388;2023-05-29T08:37:30;20.70;94.10
19330;DHT22;9799;48.214;16.388;2023-05-29T08:40:51;20.80;93.40
19330;DHT22;9799;48.214;16.388;2023-05-29T08:44:14;20.60;93.40
19330;DHT22;9799;48.214;16.388;2023-05-29T08:47:39;20.70;93.60
19330;DHT22;9799;48.214;16.388;2023-05-29T08:51:02;20.80;93.30
19330;DHT22;9799;48.214;16.388;2023-05-29T08:54:25;20.90;93.20
19330;DHT22;9799;48.214;16.388;2023-05-29T08:57:47;20.90;93.70
19330;DHT22;9799;48.214;16.388;2023-05-29T09:01:10;21.00;93.70
19330;DHT22;9799;48.214;16.388;2023-05-29T09:04:32;21.00;93.50
19330;DHT22;9799;48.214;16.388;2023-05-29T09:07:53;21.20;92.40
19330;DHT22;9799;48.214;16.388;2023-05-29T09:11:15;21.50;91.90
19330;DHT22;9799;48.214;16.388;2023-05-29T09:14:37;21.70;92.60
19330;DHT22;9799;48.214;16.388;2023-05-29T09:18:00;21.80;93.00
19330;DHT22;9799;48.214;16.388;2023-05-29T09:21:28;21.90;92.00
19330;DHT22;9799;48.214;16.388;2023-05-29T09:24:54;21.90;92.00
19330;DHT22;9799;48.214;16.388;2023-05-29T09:28:18;21.90;92.30
19330;DHT22;9799;48.214;16.388;2023-05-29T09:31:46;21.90;92.20
19330;DHT22;9799;48.214;16.388;2023-05-29T09:35:09;21.60;93.10
19330;DHT22;9799;48.214;16.388;2023-05-29T09:38:30;21.70;92.50
19330;DHT22;9799;48.214;16.388;2023-05-29T09:41:53;22.00;92.40
19330;DHT22;9799;48.214;16.388;2023-05-29T09:45:17;22.00;91.80
19330;DHT22;9799;48.214;16.388;2023-05-29T09:48:38;22.00;91.80
19330;DHT22;9799;48.214;16.388;2023-05-29T09:52:01;22.30;91.10
19330;DHT22;9799;48.214;16.388;2023-05-29T09:55:23;22.40;90.90
19330;DHT22;9799;48.214;16.388;2023-05-29T09:58:47;22.40;91.20
19330;DHT22;9799;48.214;16.388;2023-05-29T10:02:09;22.40;91.20
19330;DHT22;9799;48.214;16.388;2023-05-29T10:05:32;22.40;90.70
19330;DHT22;9799;48.214;16.388;2023-05-29T10:08:54;22.60;90.80
19330;DHT22;9799;48.214;16.388;2023-05-29T10:12:19;22.80;90.30
19330;DHT22;9799;48.214;16.388;2023-05-29T10:15:41;23.00;89.80
19330;DHT22;9799;48.214;16.388;2023-05-29T10:19:05;23.00;90.00
19330;DHT22;9799;48.214;16.388;2023-05-29T10:22:28;22.90;84.60
19330;DHT22;9799;48.214;16.388;2023-05-29T10:25:57;23.10;84.70
19330;DHT22;9799;48.214;16.388;2023-05-29T10:29:25;23.30;85.90
19330;DHT22;9799;48.214;16.388;2023-05-29T10:32:59;23.40;81.20
19330;DHT22;9799;48.214;16.388;2023-05-29T10:36:23;23.50;78.40
19330;DHT22;9799;48.214;16.388;2023-05-29T10:39:46;23.40;79.70
19330;DHT22;9799;48.214;16.388;2023-05-29T10:43:09;23.20;80.10
19330;DHT22;9799;48.214;16.388;2023-05-29T10:47:04;23.20;79.90
19330;DHT22;9799;48.214;16.388;2023-05-29T10:50:35;23.60;82.00
19330;DHT22;9799;48.214;16.388;2023-05-29T10:53:58;23.70;80.60
19330;DHT22;9799;48.214;16.388;2023-05-29T10:57:21;23.90;79.70
19330;DHT22;9799;48.214;16.388;2023-05-29T11:00:45;24.00;77.70
19330;DHT22;9799;48.214;16.388;2023-05-29T11:04:26;24.00;77.00
19330;DHT22;9799;48.214;16.388;2023-05-29T11:07:55;24.20;77.20
19330;DHT22;9799;48.214;16.388;2023-05-29T11:11:29;24.10;79.90
19330;DHT22;9799;48.214;16.388;2023-05-29T11:14:56;24.30;76.00
19330;DHT22;9799;48.214;16.388;2023-05-29T11:18:20;24.20;74.70
19330;DHT22;9799;48.214;16.388;2023-05-29T11:21:53;24.10;76.00
19330;DHT22;9799;48.214;16.388;2023-05-29T11:25:19;24.20;78.00
19330;DHT22;9799;48.214;16.388;2023-05-29T11:28:41;24.30;75.50
19330;DHT22;9799;48.214;16.388;2023-05-29T11:32:04;24.60;72.90
19330;DHT22;9799;48.214;16.388;2023-05-29T11:35:30;24.70;72.40
19330;DHT22;9799;48.214;16.388;2023-05-29T11:38:51;24.60;73.90
19330;DHT22;9799;48.214;16.388;2023-05-29T11:42:13;24.60;72.90
19330;DHT22;9799;48.214;16.388;2023-05-29T11:45:34;24.50;69.70
19330;DHT22;9799;48.214;16.388;2023-05-29T11:48:55;24.40;69.70
19330;DHT22;9799;48.214;16.388;2023-05-29T11:52:17;24.50;71.60
19330;DHT22;9799;48.214;16.388;2023-05-29T11:55:43;24.70;70.00
19330;DHT22;9799;48.214;16.388;2023-05-29T11:59:04;24.80;71.30
19330;DHT22;9799;48.214;16.388;2023-05-29T12:02:30;24.80;72.20
19330;DHT22;9799;48.214;16.388;2023-05-29T12:05:51;24.60;71.00
19330;DHT22;9799;48.214;16.388;2023-05-29T12:09:26;24.80;70.00
19330;DHT22;9799;48.214;16.388;2023-05-29T12:12:48;25.00;69.70
19330;DHT22;9799;48.214;16.388;2023-05-29T12:16:09;24.90;69.90
19330;DHT22;9799;48.214;16.388;2023-05-29T12:19:30;25.10;69.30
19330;DHT22;9799;48.214;16.388;2023-05-29T12:22:52;25.10;68.60
19330;DHT22;9799;48.214;16.388;2023-05-29T12:26:14;25.20;67.60
19330;DHT22;9799;48.214;16.388;2023-05-29T12:29:36;25.10;68.00
19330;DHT22;9799;48.214;16.388;2023-05-29T12:32:57;25.00;67.20
19330;DHT22;9799;48.214;16.388;2023-05-29T12:36:25;25.30;66.40
19330;DHT22;9799;48.214;16.388;2023-05-29T12:40:11;25.50;66.30
19330;DHT22;9799;48.214;16.388;2023-05-29T12:43:36;25.20;65.30
19330;DHT22;9799;48.214;16.388;2023-05-29T12:46:58;24.90;68.30
19330;DHT22;9799;48.214;16.388;2023-05-29T12:50:21;24.50;68.60
19330;DHT22;9799;48.214;16.388;2023-05-29T12:53:42;24.80;68.20
19330;DHT22;9799;48.214;16.388;2023-05-29T12:57:03;25.00;67.90
19330;DHT22;9799;48.214;16.388;2023-05-29T13:00:26;25.00;67.00
19330;DHT22;9799;48.214;16.388;2023-05-29T13:03:47;25.30;66.60
19330;DHT22;9799;48.214;16.388;2023-05-29T13:07:08;25.30;66.60
19330;DHT22;9799;48.214;16.388;2023-05-29T13:10:30;25.30;66.80
19330;DHT22;9799;48.214;16.388;2023-05-29T13:13:51;25.40;64.30
19330;DHT22;9799;48.214;16.388;2023-05-29T13:17:13;25.50;66.80
19330;DHT22;9799;48.214;16.388;2023-05-29T13:20:34;25.60;65.90
19330;DHT22;9799;48.214;16.388;2023-05-29T13:23:56;25.60;64.20
19330;DHT22;9799;48.214;16.388;2023-05-29T13:27:17;25.50;66.80
19330;DHT22;9799;48.214;16.388;2023-05-29T13:30:38;25.10;67.90
19330;DHT22;9799;48.214;16.388;2023-05-29T13:34:00;25.10;65.90
19330;DHT22;9799;48.214;16.388;2023-05-29T13:37:22;25.30;66.90
19330;DHT22;9799;48.214;16.388;2023-05-29T13:40:43;25.40;65.20
19330;DHT22;9799;48.214;16.388;2023-05-29T13:44:04;25.30;64.20
19330;DHT22;9799;48.214;16.388;2023-05-29T13:47:25;25.30;67.70
19330;DHT22;9799;48.214;16.388;2023-05-29T13:50:50;25.10;63.40
19330;DHT22;9799;48.214;16.388;2023-05-29T13:54:11;24.90;64.30
19330;DHT22;9799;48.214;16.388;2023-05-29T13:57:32;24.70;63.30
19330;DHT22;9799;48.214;16.388;2023-05-29T14:00:53;25.00;63.60
19330;DHT22;9799;48.214;16.388;2023-05-29T14:04:14;25.40;62.40
19330;DHT22;9799;48.214;16.388;2023-05-29T14:07:36;25.60;62.20
19330;DHT22;9799;48.214;16.388;2023-05-29T14:10:58;25.40;61.70
19330;DHT22;9799;48.214;16.388;2023-05-29T14:14:19;25.30;62.40
19330;DHT22;9799;48.214;16.388;2023-05-29T14:17:40;25.10;62.20
19330;DHT22;9799;48.214;16.388;2023-05-29T14:21:01;24.90;64.20
19330;DHT22;9799;48.214;16.388;2023-05-29T14:24:24;24.90;63.00
19330;DHT22;9799;48.214;16.388;2023-05-29T14:27:45;25.10;62.50
19330;DHT22;9799;48.214;16.388;2023-05-29T14:31:07;25.00;61.50
19330;DHT22;9799;48.214;16.388;2023-05-29T14:34:28;24.90;62.80
19330;DHT22;9799;48.214;16.388;2023-05-29T14:37:49;24.90;60.20
19330;DHT22;9799;48.214;16.388;2023-05-29T14:41:12;25.00;61.90
19330;DHT22;9799;48.214;16.388;2023-05-29T14:44:33;25.00;61.30
19330;DHT22;9799;48.214;16.388;2023-05-29T14:47:54;24.90;61.50
19330;DHT22;9799;48.214;16.388;2023-05-29T14:51:15;25.00;61.50
19330;DHT22;9799;48.214;16.388;2023-05-29T14:54:38;25.10;59.60
19330;DHT22;9799;48.214;16.388;2023-05-29T14:58:01;25.10;60.60
19330;DHT22;9799;48.214;16.388;2023-05-29T15:01:22;24.80;62.10
19330;DHT22;9799;48.214;16.388;2023-05-29T15:04:43;24.60;66.80
19330;DHT22;9799;48.214;16.388;2023-05-29T15:08:04;24.80;60.40
19330;DHT22;9799;48.214;16.388;2023-05-29T15:11:26;24.60;62.70
19330;DHT22;9799;48.214;16.388;2023-05-29T15:14:48;24.60;60.70
19330;DHT22;9799;48.214;16.388;2023-05-29T15:18:10;25.00;61.50
19330;DHT22;9799;48.214;16.388;2023-05-29T15:21:31;25.10;60.90
19330;DHT22;9799;48.214;16.388;2023-05-29T15:24:52;24.80;62.50
19330;DHT22;9799;48.214;16.388;2023-05-29T15:28:13;24.80;62.30
19330;DHT22;9799;48.214;16.388;2023-05-29T15:31:36;24.90;62.90
19330;DHT22;9799;48.214;16.388;2023-05-29T15:34:57;24.80;63.60
19330;DHT22;9799;48.214;16.388;2023-05-29T15:38:18;24.80;63.20
19330;DHT22;9799;48.214;16.388;2023-05-29T15:41:39;24.90;62.80
19330;DHT22;9799;48.214;16.388;2023-05-29T15:45:01;25.00;62.80
19330;DHT22;9799;48.214;16.388;2023-05-29T15:48:24;24.90;65.20
19330;DHT22;9799;48.214;16.388;2023-05-29T15:51:45;24.70;64.60
19330;DHT22;9799;48.214;16.388;2023-05-29T15:55:07;24.50;65.20
19330;DHT22;9799;48.214;16.388;2023-05-29T15:58:28;24.70;63.30
19330;DHT22;9799;48.214;16.388;2023-05-29T16:01:49;24.60;64.50
19330;DHT22;9799;48.214;16.388;2023-05-29T16:05:12;24.60;65.10
19330;DHT22;9799;48.214;16.388;2023-05-29T16:08:33;24.50;65.00
19330;DHT22;9799;48.214;16.388;2023-05-29T16:11:55;24.50;65.70
19330;DHT22;9799;48.214;16.388;2023-05-29T16:15:16;24.50;64.70
19330;DHT22;9799;48.214;16.388;2023-05-29T16:18:38;24.60;64.70
19330;DHT22;9799;48.214;16.388;2023-05-29T16:22:01;24.60;62.70
19330;DHT22;9799;48.214;16.388;2023-05-29T16:25:22;24.70;63.90
19330;DHT22;9799;48.214;16.388;2023-05-29T16:28:43;24.70;63.90
19330;DHT22;9799;48.214;16.388;2023-05-29T16:32:05;24.50;65.10
19330;DHT22;9799;48.214;16.388;2023-05-29T16:35:26;24.60;68.30
19330;DHT22;9799;48.214;16.388;2023-05-29T16:38:49;24.50;65.70
19330;DHT22;9799;48.214;16.388;2023-05-29T16:42:10;24.50;64.00
19330;DHT22;9799;48.214;16.388;2023-05-29T16:45:31;24.50;66.00
19330;DHT22;9799;48.214;16.388;2023-05-29T16:48:52;24.30;64.90
19330;DHT22;9799;48.214;16.388;2023-05-29T16:52:13;24.20;65.50
19330;DHT22;9799;48.214;16.388;2023-05-29T16:55:40;24.10;64.90
19330;DHT22;9799;48.214;16.388;2023-05-29T16:59:01;24.00;64.80
19330;DHT22;9799;48.214;16.388;2023-05-29T17:02:22;24.00;65.90
19330;DHT22;9799;48.214;16.388;2023-05-29T17:05:44;23.80;68.40
19330;DHT22;9799;48.214;16.388;2023-05-29T17:09:08;23.90;66.20
19330;DHT22;9799;48.214;16.388;2023-05-29T17:12:31;23.90;66.20
19330;DHT22;9799;48.214;16.388;2023-05-29T17:15:52;23.80;66.80
19330;DHT22;9799;48.214;16.388;2023-05-29T17:19:13;23.80;67.40
19330;DHT22;9799;48.214;16.388;2023-05-29T17:22:34;23.80;67.10
19330;DHT22;9799;48.214;16.388;2023-05-29T17:25:55;23.80;68.20
19330;DHT22;9799;48.214;16.388;2023-05-29T17:29:18;23.80;67.70
19330;DHT22;9799;48.214;16.388;2023-05-29T17:32:39;23.70;68.20
19330;DHT22;9799;48.214;16.388;2023-05-29T17:36:00;23.70;69.10
19330;DHT22;9799;48.214;16.388;2023-05-29T17:39:22;23.60;69.60
19330;DHT22;9799;48.214;16.388;2023-05-29T17:42:43;23.60;69.60
19330;DHT22;9799;48.214;16.388;2023-05-29T17:46:05;23.60;70.00
19330;DHT22;9799;48.214;16.388;2023-05-29T17:49:26;23.60;70.70
19330;DHT22;9799;48.214;16.388;2023-05-29T17:52:48;23.60;69.70
19330;DHT22;9799;48.214;16.388;2023-05-29T17:56:09;23.60;70.10
19330;DHT22;9799;48.214;16.388;2023-05-29T17:59:31;23.50;70.10
19330;DHT22;9799;48.214;16.388;2023-05-29T18:02:53;23.40;70.20
19330;DHT22;9799;48.214;16.388;2023-05-29T18:06:15;23.30;70.50
19330;DHT22;9799;48.214;16.388;2023-05-29T18:09:36;23.20;70.30
19330;DHT22;9799;48.214;16.388;2023-05-29T18:12:57;23.20;71.20
19330;DHT22;9799;48.214;16.388;2023-05-29T18:16:18;23.10;71.90
19330;DHT22;9799;48.214;16.388;2023-05-29T18:19:41;23.10;71.40
19330;DHT22;9799;48.214;16.388;2023-05-29T18:23:02;23.10;71.50
19330;DHT22;9799;48.214;16.388;2023-05-29T18:26:23;23.10;71.50
19330;DHT22;9799;48.214;16.388;2023-05-29T18:29:45;23.00;71.70
19330;DHT22;9799;48.214;16.388;2023-05-29T18:33:07;23.00;72.40
19330;DHT22;9799;48.214;16.388;2023-05-29T18:36:30;22.90;72.00
19330;DHT22;9799;48.214;16.388;2023-05-29T18:39:52;22.80;73.60
19330;DHT22;9799;48.214;16.388;2023-05-29T18:43:13;22.80;73.50
19330;DHT22;9799;48.214;16.388;2023-05-29T18:46:35;22.80;73.40
19330;DHT22;9799;48.214;16.388;2023-05-29T18:49:56;22.80;73.60
19330;DHT22;9799;48.214;16.388;2023-05-29T18:53:19;22.70;74.10
19330;DHT22;9799;48.214;16.388;2023-05-29T18:56:40;22.70;74.20
19330;DHT22;9799;48.214;16.388;2023-05-29T19:00:01;22.70;74.90
19330;DHT22;9799;48.214;16.388;2023-05-29T19:03:22;22.70;74.90
19330;DHT22;9799;48.214;16.388;2023-05-29T19:06:43;22.60;75.30
19330;DHT22;9799;48.214;16.388;2023-05-29T19:10:07;22.50;75.40
19330;DHT22;9799;48.214;16.388;2023-05-29T19:13:29;22.60;75.80
19330;DHT22;9799;48.214;16.388;2023-05-29T19:16:52;22.50;76.10
19330;DHT22;9799;48.214;16.388;2023-05-29T19:20:13;22.50;76.40
19330;DHT22;9799;48.214;16.388;2023-05-29T19:23:34;22.50;76.70
19330;DHT22;9799;48.214;16.388;2023-05-29T19:26:57;22.40;76.90
19330;DHT22;9799;48.214;16.388;2023-05-29T19:30:18;22.40;77.30
19330;DHT22;9799;48.214;16.388;2023-05-29T19:33:41;22.40;77.70
19330;DHT22;9799;48.214;16.388;2023-05-29T19:37:02;22.30;78.20
19330;DHT22;9799;48.214;16.388;2023-05-29T19:40:23;22.20;78.40
19330;DHT22;9799;48.214;16.388;2023-05-29T19:43:46;22.20;78.90
19330;DHT22;9799;48.214;16.388;2023-05-29T19:47:07;22.10;79.30
19330;DHT22;9799;48.214;16.388;2023-05-29T19:50:28;22.10;80.00
19330;DHT22;9799;48.214;16.388;2023-05-29T19:53:49;21.90;80.30
19330;DHT22;9799;48.214;16.388;2023-05-29T19:57:10;21.80;80.90
19330;DHT22;9799;48.214;16.388;2023-05-29T20:00:33;21.70;81.50
19330;DHT22;9799;48.214;16.388;2023-05-29T20:03:54;21.70;81.80
19330;DHT22;9799;48.214;16.388;2023-05-29T20:07:15;21.70;82.20
19330;DHT22;9799;48.214;16.388;2023-05-29T20:10:36;21.70;82.30
19330;DHT22;9799;48.214;16.388;2023-05-29T20:13:57;21.70;82.50
19330;DHT22;9799;48.214;16.388;2023-05-29T20:17:21;21.60;82.90
19330;DHT22;9799;48.214;16.388;2023-05-29T20:20:44;21.60;83.00
19330;DHT22;9799;48.214;16.388;2023-05-29T20:24:06;21.50;83.30
19330;DHT22;9799;48.214;16.388;2023-05-29T20:27:32;21.60;83.10
19330;DHT22;9799;48.214;16.388;2023-05-29T20:30:53;21.50;83.20
19330;DHT22;9799;48.214;16.388;2023-05-29T20:34:15;21.50;83.50
19330;DHT22;9799;48.214;16.388;2023-05-29T20:37:37;21.50;83.50
19330;DHT22;9799;48.214;16.388;2023-05-29T20:41:00;21.40;83.70
19330;DHT22;9799;48.214;16.388;2023-05-29T20:44:21;21.40;83.80
19330;DHT22;9799;48.214;16.388;2023-05-29T20:47:48;21.30;84.20
19330;DHT22;9799;48.214;16.388;2023-05-29T20:51:11;21.30;84.20
19330;DHT22;9799;48.214;16.388;2023-05-29T20:54:32;21.10;84.60
19330;DHT22;9799;48.214;16.388;2023-05-29T20:57:54;21.10;85.10
19330;DHT22;9799;48.214;16.388;2023-05-29T21:01:17;21.10;85.50
19330;DHT22;9799;48.214;16.388;2023-05-29T21:04:38;21.10;85.60
19330;DHT22;9799;48.214;16.388;2023-05-29T21:08:01;21.10;86.30
19330;DHT22;9799;48.214;16.388;2023-05-29T21:11:22;21.00;86.30
19330;DHT22;9799;48.214;16.388;2023-05-29T21:14:44;20.90;87.20
19330;DHT22;9799;48.214;16.388;2023-05-29T21:18:05;20.80;86.60